createdAt,value
2023-05-13T00:00:19.253Z,981.00
2023-05-13T00:01:19.186Z,982.00
2023-05-13T00:02:19.185Z,984.00
2023-05-13T00:03:19.253Z,982.00
2023-05-13T00:04:19.172Z,977.00
2023-05-13T00:05:19.166Z,978.00
2023-05-13T00:06:19.204Z,979.00
2023-05-13T00:07:19.190Z,979.00
2023-05-13T00:08:19.189Z,981.00
2023-05-13T00:09:19.202Z,979.00
2023-05-13T00:10:19.439Z,980.00
2023-05-13T00:11:19.222Z,983.00
2023-05-13T00:12:19.277Z,983.00
2023-05-13T00:13:19.293Z,985.00
2023-05-13T00:14:19.331Z,982.00
2023-05-13T00:15:19.333Z,986.00
2023-05-13T00:16:19.379Z,986.00
2023-05-13T00:17:19.382Z,987.00
2023-05-13T00:18:19.380Z,988.00
2023-05-13T00:19:19.382Z,987.00
2023-05-13T00:20:19.594Z,983.00
2023-05-13T00:21:19.404Z,982.00
2023-05-13T00:22:19.428Z,981.00
2023-05-13T00:23:19.428Z,981.00
2023-05-13T00:24:19.422Z,981.00
2023-05-13T00:25:19.436Z,980.00
2023-05-13T00:26:19.447Z,980.00
2023-05-13T00:27:19.473Z,981.00
2023-05-13T00:28:19.483Z,978.00
2023-05-13T00:29:19.476Z,979.00
2023-05-13T00:30:19.719Z,978.00
2023-05-13T00:31:19.582Z,982.00
2023-05-13T00:32:19.891Z,984.00
2023-05-13T00:33:19.552Z,984.00
2023-05-13T00:34:19.554Z,988.00
2023-05-13T00:35:19.554Z,989.00
2023-05-13T00:36:19.573Z,991.00
2023-05-13T00:37:19.563Z,993.00
2023-05-13T00:38:19.590Z,994.00
2023-05-13T00:39:19.556Z,996.00
2023-05-13T00:40:19.805Z,994.00
2023-05-13T00:41:19.566Z,995.00
2023-05-13T00:42:19.613Z,994.00
2023-05-13T00:43:19.623Z,988.00
2023-05-13T00:44:19.638Z,989.00
2023-05-13T00:45:19.635Z,987.00
2023-05-13T00:46:19.748Z,991.00
2023-05-13T00:47:19.727Z,993.00
2023-05-13T00:48:19.710Z,992.00
2023-05-13T00:49:19.737Z,987.00
2023-05-13T00:50:20.208Z,990.00
2023-05-13T00:51:19.798Z,992.00
2023-05-13T00:52:19.824Z,990.00
2023-05-13T00:53:19.871Z,992.00
2023-05-13T00:54:19.906Z,991.00
2023-05-13T00:55:19.920Z,988.00
2023-05-13T00:56:19.948Z,983.00
2023-05-13T00:57:19.974Z,984.00
2023-05-13T00:58:20.010Z,983.00
2023-05-13T00:59:20.038Z,980.00
2023-05-13T01:00:20.358Z,982.00
2023-05-13T01:01:20.079Z,979.00
2023-05-13T01:02:20.197Z,981.00
2023-05-13T01:03:20.283Z,977.00
2023-05-13T01:04:20.178Z,977.00
2023-05-13T01:05:20.198Z,977.00
2023-05-13T01:06:20.240Z,979.00
2023-05-13T01:07:20.294Z,977.00
2023-05-13T01:08:20.362Z,980.00
2023-05-13T01:09:20.433Z,982.00
2023-05-13T01:10:20.585Z,980.00
2023-05-13T01:11:20.578Z,980.00
2023-05-13T01:12:20.671Z,980.00
2023-05-13T01:13:20.754Z,979.00
2023-05-13T01:14:20.795Z,980.00
2023-05-13T01:15:20.857Z,983.00
2023-05-13T01:16:20.957Z,982.00
2023-05-13T01:17:21.113Z,983.00
2023-05-13T01:18:21.034Z,982.00
2023-05-13T01:19:21.088Z,982.00
2023-05-13T01:20:21.361Z,981.00
2023-05-13T01:21:21.200Z,982.00
2023-05-13T01:22:21.278Z,984.00
2023-05-13T01:23:21.336Z,982.00
2023-05-13T01:24:21.461Z,984.00
2023-05-13T01:25:21.416Z,985.00
2023-05-13T01:26:21.445Z,985.00
2023-05-13T01:27:21.479Z,983.00
2023-05-13T01:28:21.528Z,986.00
2023-05-13T01:29:21.569Z,985.00
2023-05-13T01:30:21.822Z,983.00
2023-05-13T01:31:21.696Z,983.00
2023-05-13T01:32:21.737Z,986.00
2023-05-13T01:33:21.765Z,988.00
2023-05-13T01:34:21.798Z,992.00
2023-05-13T01:35:21.837Z,988.00
2023-05-13T01:36:21.911Z,987.00
2023-05-13T01:37:21.944Z,985.00
2023-05-13T01:38:22.007Z,982.00
2023-05-13T01:39:22.050Z,983.00
2023-05-13T01:40:31.709Z,982.00
2023-05-13T01:41:22.113Z,983.00
2023-05-13T01:42:22.101Z,983.00
2023-05-13T01:43:22.131Z,984.00
2023-05-13T01:44:22.128Z,985.00
2023-05-13T01:45:22.128Z,988.00
2023-05-13T01:46:22.218Z,989.00
2023-05-13T01:47:22.189Z,984.00
2023-05-13T01:48:22.166Z,985.00
2023-05-13T01:49:22.170Z,984.00
2023-05-13T01:50:22.350Z,984.00
2023-05-13T01:51:22.183Z,986.00
2023-05-13T01:52:22.179Z,987.00
2023-05-13T01:53:22.186Z,985.00
2023-05-13T01:54:22.184Z,987.00
2023-05-13T01:55:22.188Z,988.00
2023-05-13T01:56:22.218Z,991.00
2023-05-13T01:57:22.208Z,990.00
2023-05-13T01:58:22.224Z,991.00
2023-05-13T01:59:22.224Z,990.00
2023-05-13T02:00:22.576Z,991.00
2023-05-13T02:01:22.899Z,989.00
2023-05-13T02:02:22.303Z,989.00
2023-05-13T02:03:22.400Z,989.00
2023-05-13T02:04:22.319Z,988.00
2023-05-13T02:05:22.335Z,989.00
2023-05-13T02:06:22.365Z,987.00
2023-05-13T02:07:22.448Z,988.00
2023-05-13T02:08:22.461Z,988.00
2023-05-13T02:09:22.466Z,986.00
2023-05-13T02:10:22.700Z,989.00
2023-05-13T02:11:22.522Z,990.00
2023-05-13T02:12:22.525Z,990.00
2023-05-13T02:13:22.547Z,987.00
2023-05-13T02:14:22.563Z,985.00
2023-05-13T02:15:22.550Z,984.00
2023-05-13T02:16:22.572Z,986.00
2023-05-13T02:17:22.780Z,987.00
2023-05-13T02:18:22.620Z,988.00
2023-05-13T02:19:22.563Z,987.00
2023-05-13T02:20:22.810Z,988.00
2023-05-13T02:21:22.595Z,989.00
2023-05-13T02:22:22.597Z,993.00
2023-05-13T02:23:22.604Z,994.00
2023-05-13T02:24:22.611Z,993.00
2023-05-13T02:25:22.616Z,993.00
2023-05-13T02:26:22.615Z,992.00
2023-05-13T02:27:22.681Z,989.00
2023-05-13T02:28:22.655Z,987.00
2023-05-13T02:29:22.638Z,990.00
2023-05-13T02:30:22.832Z,994.00
2023-05-13T02:31:22.654Z,995.00
2023-05-13T02:32:22.649Z,997.00
2023-05-13T02:33:22.653Z,1000.00
2023-05-13T02:34:22.658Z,1003.00
2023-05-13T02:35:22.699Z,999.00
2023-05-13T02:36:22.662Z,994.00
2023-05-13T02:37:22.667Z,994.00
2023-05-13T02:38:22.674Z,993.00
2023-05-13T02:39:22.682Z,992.00
2023-05-13T02:40:22.931Z,991.00
2023-05-13T02:41:22.682Z,989.00
2023-05-13T02:42:22.696Z,990.00
2023-05-13T02:43:22.697Z,989.00
2023-05-13T02:44:22.683Z,990.00
2023-05-13T02:45:22.705Z,990.00
2023-05-13T02:46:22.780Z,990.00
2023-05-13T02:47:22.797Z,992.00
2023-05-13T02:48:22.739Z,993.00
2023-05-13T02:49:22.734Z,994.00
2023-05-13T02:50:22.972Z,991.00
2023-05-13T02:51:22.734Z,990.00
2023-05-13T02:52:22.749Z,989.00
2023-05-13T02:53:22.766Z,990.00
2023-05-13T02:54:22.755Z,989.00
2023-05-13T02:55:22.856Z,989.00
2023-05-13T02:56:22.764Z,987.00
2023-05-13T02:57:22.778Z,988.00
2023-05-13T02:58:22.795Z,993.00
2023-05-13T02:59:22.783Z,994.00
2023-05-13T03:00:23.021Z,991.00
2023-05-13T03:01:22.829Z,994.00
2023-05-13T03:02:22.906Z,994.00
2023-05-13T03:03:22.915Z,992.00
2023-05-13T03:04:22.822Z,985.00
2023-05-13T03:05:22.851Z,917.00
2023-05-13T03:06:22.847Z,888.00
2023-05-13T03:07:22.846Z,873.00
2023-05-13T03:08:22.846Z,852.00
2023-05-13T03:09:22.853Z,834.00
2023-05-13T03:10:23.058Z,814.00
2023-05-13T03:11:22.857Z,799.00
2023-05-13T03:12:22.860Z,765.00
2023-05-13T03:13:22.860Z,756.00
2023-05-13T03:14:22.864Z,745.00
2023-05-13T03:15:22.874Z,738.00
2023-05-13T03:16:22.918Z,721.00
2023-05-13T03:17:22.926Z,714.00
2023-05-13T03:18:22.978Z,705.00
2023-05-13T03:19:22.930Z,696.00
2023-05-13T03:20:23.055Z,689.00
2023-05-13T03:21:22.947Z,670.00
2023-05-13T03:22:22.943Z,665.00
2023-05-13T03:23:22.969Z,659.00
2023-05-13T03:24:23.018Z,652.00
2023-05-13T03:25:23.065Z,639.00
2023-05-13T03:26:23.129Z,630.00
2023-05-13T03:27:23.167Z,622.00
2023-05-13T03:28:23.247Z,613.00
2023-05-13T03:29:23.291Z,611.00
2023-05-13T03:30:23.483Z,605.00
2023-05-13T03:31:23.540Z,600.00
2023-05-13T03:32:23.491Z,595.00
2023-05-13T03:33:23.549Z,595.00
2023-05-13T03:34:23.605Z,587.00
2023-05-13T03:35:23.675Z,585.00
2023-05-13T03:36:23.742Z,581.00
2023-05-13T03:37:23.821Z,581.00
2023-05-13T03:38:23.885Z,576.00
2023-05-13T03:39:23.960Z,571.00
2023-05-13T03:40:24.086Z,565.00
2023-05-13T03:41:24.098Z,563.00
2023-05-13T03:42:24.180Z,564.00
2023-05-13T03:43:24.267Z,561.00
2023-05-13T03:44:24.337Z,562.00
2023-05-13T03:45:24.417Z,559.00
2023-05-13T03:46:24.505Z,559.00
2023-05-13T03:47:24.575Z,554.00
2023-05-13T03:48:24.629Z,551.00
2023-05-13T03:49:24.689Z,548.00
2023-05-13T03:50:25.015Z,546.00
2023-05-13T03:51:24.856Z,541.00
2023-05-13T03:52:24.909Z,538.00
2023-05-13T03:53:25.029Z,537.00
2023-05-13T03:54:25.043Z,538.00
2023-05-13T03:55:25.112Z,536.00
2023-05-13T03:56:25.181Z,537.00
2023-05-13T03:57:25.221Z,535.00
2023-05-13T03:58:25.292Z,533.00
2023-05-13T03:59:25.361Z,529.00
2023-05-13T04:00:25.415Z,528.00
2023-05-13T04:01:25.461Z,527.00
2023-05-13T04:02:25.608Z,526.00
2023-05-13T04:03:25.625Z,523.00
2023-05-13T04:04:25.725Z,524.00
2023-05-13T04:05:25.745Z,526.00
2023-05-13T04:06:25.845Z,522.00
2023-05-13T04:07:25.922Z,519.00
2023-05-13T04:08:26.005Z,519.00
2023-05-13T04:09:26.050Z,518.00
2023-05-13T04:10:26.131Z,516.00
2023-05-13T04:11:26.205Z,516.00
2023-05-13T04:12:26.238Z,515.00
2023-05-13T04:13:26.296Z,516.00
2023-05-13T04:14:26.368Z,517.00
2023-05-13T04:15:26.453Z,516.00
2023-05-13T04:16:26.510Z,518.00
2023-05-13T04:17:26.554Z,516.00
2023-05-13T04:18:26.586Z,514.00
2023-05-13T04:19:26.584Z,512.00
2023-05-13T04:20:26.617Z,514.00
2023-05-13T04:21:26.662Z,515.00
2023-05-13T04:22:26.705Z,516.00
2023-05-13T04:23:26.736Z,515.00
2023-05-13T04:24:26.770Z,512.00
2023-05-13T04:25:26.804Z,513.00
2023-05-13T04:26:26.815Z,513.00
2023-05-13T04:27:26.844Z,511.00
2023-05-13T04:28:26.870Z,511.00
2023-05-13T04:29:26.883Z,511.00
2023-05-13T04:30:26.873Z,510.00
2023-05-13T04:31:26.949Z,507.00
2023-05-13T04:32:26.952Z,506.00
2023-05-13T04:33:26.978Z,506.00
2023-05-13T04:34:26.952Z,507.00
2023-05-13T04:35:26.964Z,507.00
2023-05-13T04:36:26.996Z,511.00
2023-05-13T04:37:26.991Z,511.00
2023-05-13T04:38:27.024Z,508.00
2023-05-13T04:39:27.028Z,505.00
2023-05-13T04:40:27.039Z,506.00
2023-05-13T04:41:27.099Z,510.00
2023-05-13T04:42:27.065Z,512.00
2023-05-13T04:43:27.102Z,511.00
2023-05-13T04:44:27.102Z,509.00
2023-05-13T04:45:27.184Z,508.00
2023-05-13T04:46:27.180Z,505.00
2023-05-13T04:47:27.168Z,506.00
2023-05-13T04:48:27.179Z,506.00
2023-05-13T04:49:27.196Z,503.00
2023-05-13T04:50:27.221Z,505.00
2023-05-13T04:51:27.228Z,504.00
2023-05-13T04:52:27.245Z,503.00
2023-05-13T04:53:27.276Z,501.00
2023-05-13T04:54:27.287Z,500.00
2023-05-13T04:55:27.885Z,500.00
2023-05-13T04:56:27.311Z,503.00
2023-05-13T04:57:27.330Z,504.00
2023-05-13T04:58:27.364Z,504.00
2023-05-13T04:59:27.370Z,501.00
2023-05-13T05:00:27.372Z,499.00
2023-05-13T05:01:27.411Z,498.00
2023-05-13T05:02:27.428Z,497.00
2023-05-13T05:03:27.498Z,497.00
2023-05-13T05:04:27.478Z,500.00
2023-05-13T05:05:27.545Z,499.00
2023-05-13T05:06:27.531Z,495.00
2023-05-13T05:07:27.566Z,492.00
2023-05-13T05:08:27.594Z,491.00
2023-05-13T05:09:27.625Z,490.00
2023-05-13T05:10:27.662Z,491.00
2023-05-13T05:11:27.698Z,489.00
2023-05-13T05:12:27.720Z,489.00
2023-05-13T05:13:27.769Z,489.00
2023-05-13T05:14:27.765Z,491.00
2023-05-13T05:15:27.801Z,489.00
2023-05-13T05:16:27.835Z,489.00
2023-05-13T05:17:27.919Z,488.00
2023-05-13T05:18:28.000Z,486.00
2023-05-13T05:19:28.104Z,487.00
2023-05-13T05:20:27.961Z,490.00
2023-05-13T05:21:27.989Z,489.00
2023-05-13T05:22:28.021Z,488.00
2023-05-13T05:23:28.092Z,488.00
2023-05-13T05:24:28.096Z,489.00
2023-05-13T05:25:28.144Z,490.00
2023-05-13T05:26:28.171Z,490.00
2023-05-13T05:27:28.201Z,491.00
2023-05-13T05:28:28.229Z,491.00
2023-05-13T05:29:28.245Z,488.00
2023-05-13T05:30:28.287Z,487.00
2023-05-13T05:31:28.365Z,487.00
2023-05-13T05:32:28.378Z,483.00
2023-05-13T05:33:28.373Z,482.00
2023-05-13T05:34:28.396Z,483.00
2023-05-13T05:35:28.432Z,482.00
2023-05-13T05:36:28.455Z,484.00
2023-05-13T05:37:28.489Z,483.00
2023-05-13T05:38:28.525Z,483.00
2023-05-13T05:39:28.550Z,483.00
2023-05-13T05:40:28.619Z,479.00
2023-05-13T05:41:28.625Z,480.00
2023-05-13T05:42:28.651Z,482.00
2023-05-13T05:43:28.674Z,484.00
2023-05-13T05:44:28.699Z,485.00
2023-05-13T05:45:28.747Z,484.00
2023-05-13T05:46:28.773Z,484.00
2023-05-13T05:47:28.816Z,486.00
2023-05-13T05:48:28.808Z,485.00
2023-05-13T05:49:28.864Z,485.00
2023-05-13T05:50:28.874Z,486.00
2023-05-13T05:51:28.898Z,483.00
2023-05-13T05:52:28.932Z,478.00
2023-05-13T05:53:28.966Z,479.00
2023-05-13T05:54:28.989Z,483.00
2023-05-13T05:55:29.032Z,483.00
2023-05-13T05:56:29.061Z,482.00
2023-05-13T05:57:29.069Z,480.00
2023-05-13T05:58:29.107Z,480.00
2023-05-13T05:59:29.142Z,476.00
2023-05-13T06:00:29.249Z,474.00
2023-05-13T06:01:29.264Z,474.00
2023-05-13T06:02:29.278Z,475.00
2023-05-13T06:03:29.311Z,477.00
2023-05-13T06:04:29.270Z,477.00
2023-05-13T06:05:29.275Z,478.00
2023-05-13T06:06:29.310Z,483.00
2023-05-13T06:07:29.317Z,483.00
2023-05-13T06:08:29.334Z,482.00
2023-05-13T06:09:29.360Z,484.00
2023-05-13T06:10:29.385Z,482.00
2023-05-13T06:11:29.423Z,482.00
2023-05-13T06:12:29.441Z,480.00
2023-05-13T06:13:29.466Z,478.00
2023-05-13T06:14:29.491Z,477.00
2023-05-13T06:15:29.554Z,477.00
2023-05-13T06:16:29.580Z,480.00
2023-05-13T06:17:29.576Z,480.00
2023-05-13T06:18:29.608Z,479.00
2023-05-13T06:19:29.628Z,478.00
2023-05-13T06:20:29.645Z,478.00
2023-05-13T06:21:29.658Z,479.00
2023-05-13T06:22:29.683Z,478.00
2023-05-13T06:23:29.696Z,479.00
2023-05-13T06:24:29.719Z,480.00
2023-05-13T06:25:29.756Z,479.00
2023-05-13T06:26:29.790Z,480.00
2023-05-13T06:27:29.831Z,478.00
2023-05-13T06:28:29.823Z,479.00
2023-05-13T06:29:29.876Z,480.00
2023-05-13T06:30:29.864Z,481.00
2023-05-13T06:31:29.912Z,482.00
2023-05-13T06:32:29.973Z,481.00
2023-05-13T06:33:30.059Z,479.00
2023-05-13T06:34:29.981Z,478.00
2023-05-13T06:35:29.995Z,477.00
2023-05-13T06:36:30.013Z,473.00
2023-05-13T06:37:30.047Z,476.00
2023-05-13T06:38:30.084Z,476.00
2023-05-13T06:39:30.092Z,475.00
2023-05-13T06:40:30.129Z,475.00
2023-05-13T06:41:30.126Z,474.00
2023-05-13T06:42:30.161Z,473.00
2023-05-13T06:43:30.182Z,473.00
2023-05-13T06:44:30.197Z,475.00
2023-05-13T06:45:30.238Z,476.00
2023-05-13T06:46:30.261Z,474.00
2023-05-13T06:47:30.319Z,471.00
2023-05-13T06:48:30.300Z,473.00
2023-05-13T06:49:30.312Z,474.00
2023-05-13T06:50:30.352Z,473.00
2023-05-13T06:51:30.350Z,473.00
2023-05-13T06:52:30.377Z,477.00
2023-05-13T06:53:30.425Z,479.00
2023-05-13T06:54:30.463Z,478.00
2023-05-13T06:55:30.466Z,477.00
2023-05-13T06:56:30.493Z,477.00
2023-05-13T06:57:41.780Z,480.00
2023-05-13T06:58:31.551Z,478.00
2023-05-13T06:59:30.538Z,478.00
2023-05-13T07:00:30.550Z,474.00
2023-05-13T07:01:30.772Z,474.00
2023-05-13T07:02:30.618Z,475.00
2023-05-13T07:03:30.621Z,475.00
2023-05-13T07:04:30.643Z,476.00
2023-05-13T07:05:30.604Z,475.00
2023-05-13T07:06:30.609Z,472.00
2023-05-13T07:07:30.630Z,472.00
2023-05-13T07:08:30.620Z,471.00
2023-05-13T07:09:30.640Z,474.00
2023-05-13T07:10:30.648Z,474.00
2023-05-13T07:11:30.648Z,473.00
2023-05-13T07:12:30.685Z,474.00
2023-05-13T07:13:30.689Z,476.00
2023-05-13T07:14:30.715Z,476.00
2023-05-13T07:15:30.714Z,473.00
2023-05-13T07:16:30.755Z,473.00
2023-05-13T07:17:30.782Z,475.00
2023-05-13T07:18:30.827Z,474.00
2023-05-13T07:19:30.756Z,474.00
2023-05-13T07:20:30.763Z,476.00
2023-05-13T07:21:30.769Z,474.00
2023-05-13T07:22:30.781Z,474.00
2023-05-13T07:23:30.785Z,475.00
2023-05-13T07:24:30.816Z,473.00
2023-05-13T07:25:30.821Z,470.00
2023-05-13T07:26:30.843Z,469.00
2023-05-13T07:27:30.861Z,468.00
2023-05-13T07:28:30.877Z,471.00
2023-05-13T07:29:30.890Z,475.00
2023-05-13T07:30:30.909Z,475.00
2023-05-13T07:31:30.886Z,476.00
2023-05-13T07:32:30.923Z,477.00
2023-05-13T07:33:30.904Z,479.00
2023-05-13T07:34:30.924Z,481.00
2023-05-13T07:35:30.923Z,481.00
2023-05-13T07:36:30.936Z,478.00
2023-05-13T07:37:30.948Z,477.00
2023-05-13T07:38:30.963Z,476.00
2023-05-13T07:39:30.966Z,478.00
2023-05-13T07:40:30.986Z,479.00
2023-05-13T07:41:30.980Z,479.00
2023-05-13T07:42:31.008Z,484.00
2023-05-13T07:43:31.007Z,485.00
2023-05-13T07:44:31.028Z,484.00
2023-05-13T07:45:31.040Z,483.00
2023-05-13T07:46:31.081Z,481.00
2023-05-13T07:47:31.051Z,481.00
2023-05-13T07:48:31.051Z,479.00
2023-05-13T07:49:31.073Z,478.00
2023-05-13T07:50:31.087Z,476.00
2023-05-13T07:51:31.087Z,478.00
2023-05-13T07:52:31.092Z,477.00
2023-05-13T07:53:31.092Z,477.00
2023-05-13T07:54:31.118Z,475.00
2023-05-13T07:55:31.128Z,475.00
2023-05-13T07:56:31.128Z,477.00
2023-05-13T07:57:31.129Z,477.00
2023-05-13T07:58:31.147Z,476.00
2023-05-13T07:59:31.143Z,476.00
2023-05-13T08:00:31.170Z,480.00
2023-05-13T08:01:31.171Z,481.00
2023-05-13T08:02:31.293Z,479.00
2023-05-13T08:03:31.388Z,476.00
2023-05-13T08:04:31.223Z,475.00
2023-05-13T08:05:31.193Z,475.00
2023-05-13T08:06:31.222Z,475.00
2023-05-13T08:07:31.251Z,477.00
2023-05-13T08:08:31.225Z,478.00
2023-05-13T08:09:31.239Z,477.00
2023-05-13T08:10:31.257Z,475.00
2023-05-13T08:11:31.261Z,473.00
2023-05-13T08:12:31.264Z,475.00
2023-05-13T08:13:31.265Z,472.00
2023-05-13T08:14:31.288Z,475.00
2023-05-13T08:15:31.281Z,475.00
2023-05-13T08:16:31.334Z,477.00
2023-05-13T08:17:31.333Z,479.00
2023-05-13T08:18:31.371Z,479.00
2023-05-13T08:19:31.326Z,478.00
2023-05-13T08:20:31.339Z,476.00
2023-05-13T08:21:31.343Z,473.00
2023-05-13T08:22:31.342Z,475.00
2023-05-13T08:23:43.927Z,473.00
2023-05-13T08:24:32.370Z,473.00
2023-05-13T08:25:31.384Z,471.00
2023-05-13T08:26:31.384Z,474.00
2023-05-13T08:27:31.389Z,478.00
2023-05-13T08:28:31.399Z,478.00
2023-05-13T08:29:31.421Z,475.00
2023-05-13T08:30:31.424Z,476.00
2023-05-13T08:31:31.455Z,476.00
2023-05-13T08:32:31.556Z,476.00
2023-05-13T08:33:31.457Z,475.00
2023-05-13T08:34:31.452Z,472.00
2023-05-13T08:35:31.466Z,475.00
2023-05-13T08:36:31.475Z,475.00
2023-05-13T08:37:31.466Z,475.00
2023-05-13T08:38:31.472Z,477.00
2023-05-13T08:39:31.476Z,475.00
2023-05-13T08:40:31.476Z,476.00
2023-05-13T08:41:31.482Z,476.00
2023-05-13T08:42:31.508Z,476.00
2023-05-13T08:43:31.520Z,473.00
2023-05-13T08:44:31.544Z,476.00
2023-05-13T08:45:31.550Z,475.00
2023-05-13T08:46:31.675Z,475.00
2023-05-13T08:47:31.634Z,476.00
2023-05-13T08:48:31.572Z,475.00
2023-05-13T08:49:31.592Z,473.00
2023-05-13T08:50:31.632Z,471.00
2023-05-13T08:51:31.607Z,473.00
2023-05-13T08:52:31.608Z,472.00
2023-05-13T08:53:31.612Z,473.00
2023-05-13T08:54:31.637Z,472.00
2023-05-13T08:55:31.636Z,469.00
2023-05-13T08:56:31.647Z,468.00
2023-05-13T08:57:31.645Z,472.00
2023-05-13T08:58:31.655Z,471.00
2023-05-13T08:59:31.672Z,471.00
2023-05-13T09:00:31.662Z,469.00
2023-05-13T09:01:31.712Z,471.00
2023-05-13T09:02:31.688Z,468.00
2023-05-13T09:03:31.665Z,472.00
2023-05-13T09:04:31.728Z,473.00
2023-05-13T09:05:31.984Z,473.00
2023-05-13T09:06:31.749Z,473.00
2023-05-13T09:07:31.803Z,467.00
2023-05-13T09:08:31.830Z,473.00
2023-05-13T09:09:31.900Z,472.00
2023-05-13T09:10:31.973Z,474.00
2023-05-13T09:11:32.041Z,474.00
2023-05-13T09:12:32.118Z,472.00
2023-05-13T09:13:32.188Z,472.00
2023-05-13T09:14:32.301Z,473.00
2023-05-13T09:15:32.335Z,475.00
2023-05-13T09:16:32.462Z,475.00
2023-05-13T09:17:32.501Z,477.00
2023-05-13T09:18:32.726Z,476.00
2023-05-13T09:19:32.761Z,475.00
2023-05-13T09:20:32.683Z,476.00
2023-05-13T09:21:32.740Z,477.00
2023-05-13T09:22:32.817Z,474.00
2023-05-13T09:23:32.891Z,474.00
2023-05-13T09:24:32.959Z,474.00
2023-05-13T09:25:33.065Z,473.00
2023-05-13T09:26:33.086Z,474.00
2023-05-13T09:27:33.157Z,479.00
2023-05-13T09:28:33.227Z,481.00
2023-05-13T09:29:33.306Z,480.00
2023-05-13T09:30:33.422Z,480.00
2023-05-13T09:31:33.441Z,477.00
2023-05-13T09:32:33.495Z,477.00
2023-05-13T09:33:33.533Z,475.00
2023-05-13T09:34:33.593Z,478.00
2023-05-13T09:35:33.622Z,477.00
2023-05-13T09:36:33.684Z,478.00
2023-05-13T09:37:33.729Z,479.00
2023-05-13T09:38:33.797Z,478.00
2023-05-13T09:39:34.286Z,478.00
2023-05-13T09:40:33.877Z,478.00
2023-05-13T09:41:33.924Z,482.00
2023-05-13T09:42:33.962Z,482.00
2023-05-13T09:43:34.007Z,481.00
2023-05-13T09:44:34.043Z,481.00
2023-05-13T09:45:34.081Z,480.00
2023-05-13T09:46:34.162Z,480.00
2023-05-13T09:47:34.166Z,480.00
2023-05-13T09:48:34.221Z,481.00
2023-05-13T09:49:34.232Z,479.00
2023-05-13T09:50:34.255Z,477.00
2023-05-13T09:51:34.256Z,478.00
2023-05-13T09:52:34.254Z,477.00
2023-05-13T09:53:34.272Z,479.00
2023-05-13T09:54:34.288Z,478.00
2023-05-13T09:55:34.268Z,477.00
2023-05-13T09:56:34.269Z,475.00
2023-05-13T09:57:34.269Z,474.00
2023-05-13T09:58:34.264Z,475.00
2023-05-13T09:59:34.267Z,476.00
2023-05-13T10:00:35.450Z,476.00
2023-05-13T10:01:34.253Z,473.00
2023-05-13T10:02:34.276Z,472.00
2023-05-13T10:03:34.295Z,473.00
2023-05-13T10:04:34.255Z,475.00
2023-05-13T10:05:34.253Z,477.00
2023-05-13T10:06:34.249Z,479.00
2023-05-13T10:07:34.244Z,479.00
2023-05-13T10:08:34.255Z,480.00
2023-05-13T10:09:34.299Z,480.00
2023-05-13T10:10:34.265Z,480.00
2023-05-13T10:11:34.268Z,482.00
2023-05-13T10:12:34.267Z,479.00
2023-05-13T10:13:34.259Z,480.00
2023-05-13T10:14:34.262Z,480.00
2023-05-13T10:15:34.288Z,480.00
2023-05-13T10:16:34.318Z,480.00
2023-05-13T10:17:34.283Z,480.00
2023-05-13T10:18:34.294Z,477.00
2023-05-13T10:19:34.270Z,476.00
2023-05-13T10:20:34.273Z,478.00
2023-05-13T10:21:34.271Z,478.00
2023-05-13T10:22:34.287Z,479.00
2023-05-13T10:23:34.282Z,478.00
2023-05-13T10:24:35.018Z,476.00
2023-05-13T10:25:34.300Z,475.00
2023-05-13T10:26:34.343Z,475.00
2023-05-13T10:27:34.302Z,476.00
2023-05-13T10:28:34.304Z,475.00
2023-05-13T10:29:34.302Z,475.00
2023-05-13T10:30:34.357Z,477.00
2023-05-13T10:31:34.387Z,478.00
2023-05-13T10:32:34.398Z,477.00
2023-05-13T10:33:34.364Z,478.00
2023-05-13T10:34:34.395Z,478.00
2023-05-13T10:35:37.082Z,478.00
2023-05-13T10:36:34.393Z,472.00
2023-05-13T10:37:34.392Z,479.00
2023-05-13T10:38:34.386Z,480.00
2023-05-13T10:39:34.378Z,479.00
2023-05-13T10:40:34.396Z,478.00
2023-05-13T10:41:34.366Z,481.00
2023-05-13T10:42:34.369Z,480.00
2023-05-13T10:43:34.368Z,478.00
2023-05-13T10:44:34.372Z,479.00
2023-05-13T10:45:34.386Z,481.00
2023-05-13T10:46:34.376Z,478.00
2023-05-13T10:47:34.414Z,479.00
2023-05-13T10:48:34.375Z,478.00
2023-05-13T10:49:34.333Z,476.00
2023-05-13T10:50:34.343Z,475.00
2023-05-13T10:51:34.319Z,477.00
2023-05-13T10:52:34.319Z,478.00
2023-05-13T10:53:34.319Z,477.00
2023-05-13T10:54:34.324Z,476.00
2023-05-13T10:55:34.295Z,476.00
2023-05-13T10:56:34.291Z,475.00
2023-05-13T10:57:34.280Z,478.00
2023-05-13T10:58:34.266Z,477.00
2023-05-13T10:59:34.261Z,480.00
2023-05-13T11:00:34.269Z,481.00
2023-05-13T11:01:34.290Z,479.00
2023-05-13T11:02:34.322Z,480.00
2023-05-13T11:03:34.430Z,476.00
2023-05-13T11:04:34.266Z,475.00
2023-05-13T11:05:34.271Z,473.00
2023-05-13T11:06:34.286Z,472.00
2023-05-13T11:07:34.254Z,474.00
2023-05-13T11:08:34.248Z,475.00
2023-05-13T11:09:34.253Z,476.00
2023-05-13T11:10:34.253Z,478.00
2023-05-13T11:11:34.253Z,478.00
2023-05-13T11:12:34.249Z,478.00
2023-05-13T11:13:34.253Z,475.00
2023-05-13T11:14:34.241Z,474.00
2023-05-13T11:15:34.274Z,475.00
2023-05-13T11:16:34.263Z,474.00
2023-05-13T11:17:34.243Z,473.00
2023-05-13T11:18:34.256Z,474.00
2023-05-13T11:19:34.316Z,474.00
2023-05-13T11:20:45.457Z,475.00
2023-05-13T11:21:35.345Z,475.00
2023-05-13T11:22:34.347Z,475.00
2023-05-13T11:23:34.345Z,473.00
2023-05-13T11:24:34.344Z,475.00
2023-05-13T11:25:34.357Z,476.00
2023-05-13T11:26:34.339Z,479.00
2023-05-13T11:27:34.331Z,481.00
2023-05-13T11:28:34.328Z,481.00
2023-05-13T11:29:34.446Z,483.00
2023-05-13T11:30:34.357Z,482.00
2023-05-13T11:31:34.408Z,480.00
2023-05-13T11:32:34.495Z,478.00
2023-05-13T11:33:34.526Z,477.00
2023-05-13T11:34:34.573Z,480.00
2023-05-13T11:35:34.643Z,482.00
2023-05-13T11:36:34.682Z,479.00
2023-05-13T11:37:34.743Z,478.00
2023-05-13T11:38:34.746Z,481.00
2023-05-13T11:39:34.760Z,480.00
2023-05-13T11:40:34.784Z,480.00
2023-05-13T11:41:34.763Z,481.00
2023-05-13T11:42:34.741Z,483.00
2023-05-13T11:43:34.931Z,484.00
2023-05-13T11:44:34.745Z,485.00
2023-05-13T11:45:34.801Z,483.00
2023-05-13T11:46:34.797Z,482.00
2023-05-13T11:47:34.911Z,483.00
2023-05-13T11:48:34.936Z,483.00
2023-05-13T11:49:35.035Z,483.00
2023-05-13T11:50:35.061Z,484.00
2023-05-13T11:51:35.127Z,483.00
2023-05-13T11:52:35.180Z,483.00
2023-05-13T11:53:35.224Z,483.00
2023-05-13T11:54:35.293Z,482.00
2023-05-13T11:55:35.363Z,484.00
2023-05-13T11:56:35.430Z,482.00
2023-05-13T11:57:35.484Z,482.00
2023-05-13T11:58:35.532Z,483.00
2023-05-13T11:59:45.253Z,482.00
2023-05-13T12:00:36.591Z,482.00
2023-05-13T12:01:35.587Z,482.00
2023-05-13T12:02:35.718Z,483.00
2023-05-13T12:03:35.643Z,486.00
2023-05-13T12:04:35.596Z,486.00
2023-05-13T12:05:35.639Z,485.00
2023-05-13T12:06:35.550Z,482.00
2023-05-13T12:07:35.550Z,484.00
2023-05-13T12:08:35.605Z,486.00
2023-05-13T12:09:35.653Z,485.00
2023-05-13T12:10:35.720Z,485.00
2023-05-13T12:11:35.769Z,489.00
2023-05-13T12:12:35.825Z,490.00
2023-05-13T12:13:35.899Z,491.00
2023-05-13T12:14:35.938Z,488.00
2023-05-13T12:15:36.020Z,488.00
2023-05-13T12:16:36.073Z,488.00
2023-05-13T12:17:36.179Z,488.00
2023-05-13T12:18:36.246Z,488.00
2023-05-13T12:19:36.273Z,491.00
2023-05-13T12:20:36.323Z,487.00
2023-05-13T12:21:36.377Z,485.00
2023-05-13T12:22:36.441Z,484.00
2023-05-13T12:23:36.511Z,483.00
2023-05-13T12:24:36.556Z,483.00
2023-05-13T12:25:36.617Z,479.00
2023-05-13T12:26:36.660Z,476.00
2023-05-13T12:27:36.714Z,475.00
2023-05-13T12:28:36.796Z,476.00